sensor_id;sensor_type;location;lat;lon;timestamp;P1;durP1;ratioP1;P2;durP2;ratioP2
59366;SDS011;45163;47.690;11.770;2022-10-16T00:01:06;2.87;;;1.53;;
59366;SDS011;45163;47.690;11.770;2022-10-16T00:03:33;1.70;;;1.43;;
59366;SDS011;45163;47.690;11.770;2022-10-16T00:06:00;1.73;;;1.63;;
59366;SDS011;45163;47.690;11.770;2022-10-16T00:08:26;3.83;;;1.77;;
59366;SDS011;45163;47.690;11.770;2022-10-16T00:10:52;2.97;;;1.77;;
59366;SDS011;45163;47.690;11.770;2022-10-16T00:13:24;2.33;;;1.50;;
59366;SDS011;45163;47.690;11.770;2022-10-16T00:15:50;3.60;;;1.33;;
59366;SDS011;45163;47.690;11.770;2022-10-16T00:18:16;5.73;;;1.80;;
59366;SDS011;45163;47.690;11.770;2022-10-16T00:20:42;4.00;;;2.23;;
59366;SDS011;45163;47.690;11.770;2022-10-16T00:23:08;3.60;;;2.13;;
59366;SDS011;45163;47.690;11.770;2022-10-16T00:25:36;6.23;;;1.97;;
59366;SDS011;45163;47.690;11.770;2022-10-16T00:28:02;3.27;;;1.77;;
59366;SDS011;45163;47.690;11.770;2022-10-16T00:30:28;3.40;;;2.27;;
59366;SDS011;45163;47.690;11.770;2022-10-16T00:32:54;2.40;;;1.80;;
59366;SDS011;45163;47.690;11.770;2022-10-16T00:35:21;2.27;;;1.80;;
59366;SDS011;45163;47.690;11.770;2022-10-16T00:37:47;1.67;;;1.57;;
59366;SDS011;45163;47.690;11.770;2022-10-16T00:40:14;5.40;;;2.60;;
59366;SDS011;45163;47.690;11.770;2022-10-16T00:42:40;2.77;;;1.60;;
59366;SDS011;45163;47.690;11.770;2022-10-16T00:45:06;2.77;;;1.70;;
59366;SDS011;45163;47.690;11.770;2022-10-16T00:47:35;3.50;;;2.57;;
59366;SDS011;45163;47.690;11.770;2022-10-16T00:50:07;3.07;;;1.90;;
59366;SDS011;45163;47.690;11.770;2022-10-16T00:52:37;2.47;;;1.40;;
59366;SDS011;45163;47.690;11.770;2022-10-16T00:55:08;3.23;;;1.70;;
59366;SDS011;45163;47.690;11.770;2022-10-16T00:57:35;3.57;;;1.70;;
59366;SDS011;45163;47.690;11.770;2022-10-16T01:00:07;2.90;;;1.70;;
59366;SDS011;45163;47.690;11.770;2022-10-16T01:02:34;2.07;;;1.87;;
59366;SDS011;45163;47.690;11.770;2022-10-16T01:05:00;4.37;;;2.50;;
59366;SDS011;45163;47.690;11.770;2022-10-16T01:15:37;3.43;;;1.73;;
59366;SDS011;45163;47.690;11.770;2022-10-16T01:18:16;2.60;;;1.80;;
59366;SDS011;45163;47.690;11.770;2022-10-16T01:21:08;3.63;;;2.00;;
59366;SDS011;45163;47.690;11.770;2022-10-16T01:29:13;5.17;;;1.80;;
59366;SDS011;45163;47.690;11.770;2022-10-16T01:31:46;2.03;;;1.70;;
59366;SDS011;45163;47.690;11.770;2022-10-16T01:34:19;2.67;;;1.67;;
59366;SDS011;45163;47.690;11.770;2022-10-16T01:36:50;3.00;;;2.57;;
59366;SDS011;45163;47.690;11.770;2022-10-16T01:39:20;2.53;;;2.13;;
59366;SDS011;45163;47.690;11.770;2022-10-16T01:41:58;3.40;;;2.73;;
59366;SDS011;45163;47.690;11.770;2022-10-16T01:44:31;3.73;;;2.07;;
59366;SDS011;45163;47.690;11.770;2022-10-16T01:47:00;7.47;;;1.87;;
59366;SDS011;45163;47.690;11.770;2022-10-16T01:49:27;3.13;;;1.70;;
59366;SDS011;45163;47.690;11.770;2022-10-16T01:51:58;4.93;;;2.10;;
59366;SDS011;45163;47.690;11.770;2022-10-16T01:54:26;2.97;;;1.60;;
59366;SDS011;45163;47.690;11.770;2022-10-16T01:56:54;2.23;;;1.80;;
59366;SDS011;45163;47.690;11.770;2022-10-16T01:59:22;4.93;;;3.00;;
59366;SDS011;45163;47.690;11.770;2022-10-16T02:01:54;8.17;;;2.03;;
59366;SDS011;45163;47.690;11.770;2022-10-16T02:04:29;4.60;;;2.17;;
59366;SDS011;45163;47.690;11.770;2022-10-16T02:06:58;5.03;;;1.90;;
59366;SDS011;45163;47.690;11.770;2022-10-16T02:09:24;2.80;;;1.80;;
59366;SDS011;45163;47.690;11.770;2022-10-16T02:11:52;2.17;;;1.97;;
59366;SDS011;45163;47.690;11.770;2022-10-16T02:14:20;3.00;;;2.00;;
59366;SDS011;45163;47.690;11.770;2022-10-16T02:16:50;1.70;;;1.60;;
59366;SDS011;45163;47.690;11.770;2022-10-16T02:19:17;3.77;;;1.80;;
59366;SDS011;45163;47.690;11.770;2022-10-16T02:21:48;3.70;;;1.77;;
59366;SDS011;45163;47.690;11.770;2022-10-16T02:27:13;2.00;;;1.80;;
59366;SDS011;45163;47.690;11.770;2022-10-16T02:29:52;5.80;;;3.87;;
59366;SDS011;45163;47.690;11.770;2022-10-16T02:32:24;2.77;;;2.07;;
59366;SDS011;45163;47.690;11.770;2022-10-16T02:34:56;4.47;;;2.60;;
59366;SDS011;45163;47.690;11.770;2022-10-16T02:37:23;3.13;;;2.07;;
59366;SDS011;45163;47.690;11.770;2022-10-16T02:39:51;2.33;;;1.80;;
59366;SDS011;45163;47.690;11.770;2022-10-16T02:42:19;6.83;;;1.80;;
59366;SDS011;45163;47.690;11.770;2022-10-16T02:44:45;2.80;;;2.10;;
59366;SDS011;45163;47.690;11.770;2022-10-16T02:47:11;4.53;;;2.50;;
59366;SDS011;45163;47.690;11.770;2022-10-16T02:49:38;3.10;;;2.07;;
59366;SDS011;45163;47.690;11.770;2022-10-16T02:52:04;2.30;;;2.10;;
59366;SDS011;45163;47.690;11.770;2022-10-16T02:54:29;2.30;;;2.10;;
59366;SDS011;45163;47.690;11.770;2022-10-16T02:56:55;2.20;;;1.93;;
59366;SDS011;45163;47.690;11.770;2022-10-16T02:59:21;2.00;;;1.80;;
59366;SDS011;45163;47.690;11.770;2022-10-16T03:01:47;5.33;;;1.80;;
59366;SDS011;45163;47.690;11.770;2022-10-16T03:04:14;3.20;;;1.83;;
59366;SDS011;45163;47.690;11.770;2022-10-16T03:06:40;2.37;;;1.70;;
59366;SDS011;45163;47.690;11.770;2022-10-16T03:09:06;2.63;;;1.90;;
59366;SDS011;45163;47.690;11.770;2022-10-16T03:11:32;2.80;;;1.83;;
59366;SDS011;45163;47.690;11.770;2022-10-16T03:13:58;5.17;;;1.77;;
59366;SDS011;45163;47.690;11.770;2022-10-16T03:16:24;2.13;;;1.93;;
59366;SDS011;45163;47.690;11.770;2022-10-16T03:18:50;6.10;;;2.97;;
59366;SDS011;45163;47.690;11.770;2022-10-16T03:21:16;3.80;;;1.97;;
59366;SDS011;45163;47.690;11.770;2022-10-16T03:23:42;3.37;;;1.67;;
59366;SDS011;45163;47.690;11.770;2022-10-16T03:26:08;1.93;;;1.70;;
59366;SDS011;45163;47.690;11.770;2022-10-16T03:28:34;3.40;;;1.90;;
59366;SDS011;45163;47.690;11.770;2022-10-16T03:31:00;1.80;;;1.70;;
59366;SDS011;45163;47.690;11.770;2022-10-16T03:33:26;2.10;;;1.90;;
59366;SDS011;45163;47.690;11.770;2022-10-16T03:35:52;4.30;;;1.77;;
59366;SDS011;45163;47.690;11.770;2022-10-16T03:38:20;2.10;;;1.90;;
59366;SDS011;45163;47.690;11.770;2022-10-16T03:40:46;4.17;;;2.10;;
59366;SDS011;45163;47.690;11.770;2022-10-16T03:43:13;2.10;;;1.90;;
59366;SDS011;45163;47.690;11.770;2022-10-16T03:45:39;2.40;;;2.00;;
59366;SDS011;45163;47.690;11.770;2022-10-16T03:48:05;4.03;;;1.80;;
59366;SDS011;45163;47.690;11.770;2022-10-16T03:50:31;2.10;;;1.90;;
59366;SDS011;45163;47.690;11.770;2022-10-16T03:52:57;3.23;;;2.00;;
59366;SDS011;45163;47.690;11.770;2022-10-16T03:55:23;1.97;;;1.77;;
59366;SDS011;45163;47.690;11.770;2022-10-16T03:57:49;2.73;;;1.80;;
59366;SDS011;45163;47.690;11.770;2022-10-16T04:00:15;4.37;;;1.70;;
59366;SDS011;45163;47.690;11.770;2022-10-16T04:02:41;2.50;;;1.80;;
59366;SDS011;45163;47.690;11.770;2022-10-16T04:05:07;2.47;;;2.10;;
59366;SDS011;45163;47.690;11.770;2022-10-16T04:07:33;3.93;;;2.00;;
59366;SDS011;45163;47.690;11.770;2022-10-16T04:09:59;3.63;;;2.10;;
59366;SDS011;45163;47.690;11.770;2022-10-16T04:12:25;3.33;;;2.13;;
59366;SDS011;45163;47.690;11.770;2022-10-16T04:14:52;2.53;;;1.80;;
59366;SDS011;45163;47.690;11.770;2022-10-16T04:17:18;2.20;;;1.73;;
59366;SDS011;45163;47.690;11.770;2022-10-16T04:19:44;2.50;;;1.90;;
59366;SDS011;45163;47.690;11.770;2022-10-16T04:22:10;2.13;;;1.90;;
59366;SDS011;45163;47.690;11.770;2022-10-16T04:24:36;2.20;;;2.00;;
59366;SDS011;45163;47.690;11.770;2022-10-16T04:27:02;2.37;;;2.00;;
59366;SDS011;45163;47.690;11.770;2022-10-16T04:29:28;2.83;;;2.13;;
59366;SDS011;45163;47.690;11.770;2022-10-16T04:31:54;3.67;;;2.30;;
59366;SDS011;45163;47.690;11.770;2022-10-16T04:34:20;2.83;;;2.30;;
59366;SDS011;45163;47.690;11.770;2022-10-16T04:36:49;3.60;;;2.00;;
59366;SDS011;45163;47.690;11.770;2022-10-16T04:39:15;4.83;;;2.30;;
59366;SDS011;45163;47.690;11.770;2022-10-16T04:41:42;2.60;;;2.00;;
59366;SDS011;45163;47.690;11.770;2022-10-16T04:44:08;3.17;;;2.10;;
59366;SDS011;45163;47.690;11.770;2022-10-16T04:46:34;2.70;;;2.10;;
59366;SDS011;45163;47.690;11.770;2022-10-16T04:49:00;2.67;;;2.27;;
59366;SDS011;45163;47.690;11.770;2022-10-16T04:51:26;7.37;;;2.00;;
59366;SDS011;45163;47.690;11.770;2022-10-16T04:53:53;4.03;;;2.50;;
59366;SDS011;45163;47.690;11.770;2022-10-16T04:56:20;3.87;;;2.10;;
59366;SDS011;45163;47.690;11.770;2022-10-16T04:58:47;5.13;;;2.00;;
59366;SDS011;45163;47.690;11.770;2022-10-16T05:01:13;2.90;;;2.20;;
59366;SDS011;45163;47.690;11.770;2022-10-16T05:03:39;3.37;;;2.07;;
59366;SDS011;45163;47.690;11.770;2022-10-16T05:06:05;2.90;;;2.17;;
59366;SDS011;45163;47.690;11.770;2022-10-16T05:08:32;4.57;;;2.00;;
59366;SDS011;45163;47.690;11.770;2022-10-16T05:10:59;2.93;;;2.10;;
59366;SDS011;45163;47.690;11.770;2022-10-16T05:13:25;4.63;;;2.20;;
59366;SDS011;45163;47.690;11.770;2022-10-16T05:15:51;6.00;;;2.30;;
59366;SDS011;45163;47.690;11.770;2022-10-16T05:18:17;2.50;;;2.20;;
59366;SDS011;45163;47.690;11.770;2022-10-16T05:20:43;2.43;;;2.00;;
59366;SDS011;45163;47.690;11.770;2022-10-16T05:23:09;2.30;;;2.10;;
59366;SDS011;45163;47.690;11.770;2022-10-16T05:25:36;2.60;;;2.27;;
59366;SDS011;45163;47.690;11.770;2022-10-16T05:28:02;3.37;;;2.10;;
59366;SDS011;45163;47.690;11.770;2022-10-16T05:30:28;4.07;;;2.20;;
59366;SDS011;45163;47.690;11.770;2022-10-16T05:32:55;2.60;;;2.27;;
59366;SDS011;45163;47.690;11.770;2022-10-16T05:35:20;2.40;;;2.20;;
59366;SDS011;45163;47.690;11.770;2022-10-16T05:37:47;5.80;;;2.33;;
59366;SDS011;45163;47.690;11.770;2022-10-16T05:40:13;2.20;;;2.00;;
59366;SDS011;45163;47.690;11.770;2022-10-16T05:42:40;2.70;;;2.20;;
59366;SDS011;45163;47.690;11.770;2022-10-16T05:45:06;2.60;;;2.30;;
59366;SDS011;45163;47.690;11.770;2022-10-16T05:47:35;5.63;;;2.10;;
59366;SDS011;45163;47.690;11.770;2022-10-16T05:50:01;5.00;;;2.30;;
59366;SDS011;45163;47.690;11.770;2022-10-16T05:52:27;2.77;;;2.20;;
59366;SDS011;45163;47.690;11.770;2022-10-16T05:54:53;2.73;;;2.13;;
59366;SDS011;45163;47.690;11.770;2022-10-16T05:57:19;3.13;;;2.30;;
59366;SDS011;45163;47.690;11.770;2022-10-16T05:59:45;2.57;;;2.13;;
59366;SDS011;45163;47.690;11.770;2022-10-16T06:02:12;2.50;;;2.30;;
59366;SDS011;45163;47.690;11.770;2022-10-16T06:04:39;2.10;;;1.90;;
59366;SDS011;45163;47.690;11.770;2022-10-16T06:07:04;5.93;;;2.30;;
59366;SDS011;45163;47.690;11.770;2022-10-16T06:09:30;3.00;;;2.20;;
59366;SDS011;45163;47.690;11.770;2022-10-16T06:11:56;5.57;;;2.10;;
59366;SDS011;45163;47.690;11.770;2022-10-16T06:14:23;3.53;;;2.07;;
59366;SDS011;45163;47.690;11.770;2022-10-16T06:16:49;2.37;;;2.07;;
59366;SDS011;45163;47.690;11.770;2022-10-16T06:19:15;2.57;;;1.97;;
59366;SDS011;45163;47.690;11.770;2022-10-16T06:21:41;2.20;;;2.00;;
59366;SDS011;45163;47.690;11.770;2022-10-16T06:24:07;2.87;;;2.07;;
59366;SDS011;45163;47.690;11.770;2022-10-16T06:26:33;2.60;;;2.10;;
59366;SDS011;45163;47.690;11.770;2022-10-16T06:29:00;7.20;;;2.10;;
59366;SDS011;45163;47.690;11.770;2022-10-16T06:31:27;2.80;;;2.27;;
59366;SDS011;45163;47.690;11.770;2022-10-16T06:33:56;4.63;;;2.80;;
59366;SDS011;45163;47.690;11.770;2022-10-16T06:36:23;4.47;;;2.40;;
59366;SDS011;45163;47.690;11.770;2022-10-16T06:38:50;2.17;;;1.97;;
59366;SDS011;45163;47.690;11.770;2022-10-16T06:41:18;2.23;;;2.03;;
59366;SDS011;45163;47.690;11.770;2022-10-16T06:43:46;3.47;;;2.20;;
59366;SDS011;45163;47.690;11.770;2022-10-16T06:46:13;2.30;;;2.10;;
59366;SDS011;45163;47.690;11.770;2022-10-16T06:48:41;3.87;;;2.13;;
59366;SDS011;45163;47.690;11.770;2022-10-16T06:53:42;2.30;;;2.10;;
59366;SDS011;45163;47.690;11.770;2022-10-16T06:56:14;3.63;;;2.10;;
59366;SDS011;45163;47.690;11.770;2022-10-16T06:58:42;2.23;;;1.93;;
59366;SDS011;45163;47.690;11.770;2022-10-16T07:01:09;3.03;;;2.10;;
59366;SDS011;45163;47.690;11.770;2022-10-16T07:03:36;3.77;;;2.20;;
59366;SDS011;45163;47.690;11.770;2022-10-16T07:06:05;3.33;;;2.07;;
59366;SDS011;45163;47.690;11.770;2022-10-16T07:08:32;3.53;;;2.07;;
59366;SDS011;45163;47.690;11.770;2022-10-16T07:11:03;2.20;;;2.00;;
59366;SDS011;45163;47.690;11.770;2022-10-16T07:13:34;2.17;;;1.93;;
59366;SDS011;45163;47.690;11.770;2022-10-16T07:16:08;2.50;;;2.10;;
59366;SDS011;45163;47.690;11.770;2022-10-16T07:18:34;2.17;;;1.97;;
59366;SDS011;45163;47.690;11.770;2022-10-16T07:21:05;4.90;;;2.30;;
59366;SDS011;45163;47.690;11.770;2022-10-16T07:23:36;2.73;;;2.20;;
59366;SDS011;45163;47.690;11.770;2022-10-16T07:26:03;2.57;;;2.13;;
59366;SDS011;45163;47.690;11.770;2022-10-16T07:28:30;2.70;;;2.30;;
59366;SDS011;45163;47.690;11.770;2022-10-16T07:31:01;3.90;;;2.00;;
59366;SDS011;45163;47.690;11.770;2022-10-16T07:33:28;2.80;;;2.00;;
59366;SDS011;45163;47.690;11.770;2022-10-16T07:35:54;3.63;;;1.90;;
59366;SDS011;45163;47.690;11.770;2022-10-16T07:38:21;3.60;;;2.20;;
59366;SDS011;45163;47.690;11.770;2022-10-16T07:40:47;2.70;;;2.43;;
59366;SDS011;45163;47.690;11.770;2022-10-16T07:43:20;3.40;;;2.10;;
59366;SDS011;45163;47.690;11.770;2022-10-16T07:45:47;4.47;;;2.10;;
59366;SDS011;45163;47.690;11.770;2022-10-16T07:48:16;2.20;;;2.00;;
59366;SDS011;45163;47.690;11.770;2022-10-16T07:50:43;2.13;;;1.93;;
59366;SDS011;45163;47.690;11.770;2022-10-16T07:53:10;2.47;;;2.10;;
59366;SDS011;45163;47.690;11.770;2022-10-16T07:55:36;2.83;;;2.50;;
59366;SDS011;45163;47.690;11.770;2022-10-16T07:58:03;4.57;;;2.20;;
59366;SDS011;45163;47.690;11.770;2022-10-16T08:00:30;3.70;;;2.30;;
59366;SDS011;45163;47.690;11.770;2022-10-16T08:02:56;2.80;;;2.37;;
59366;SDS011;45163;47.690;11.770;2022-10-16T08:05:26;2.40;;;2.20;;
59366;SDS011;45163;47.690;11.770;2022-10-16T08:07:53;2.27;;;2.07;;
59366;SDS011;45163;47.690;11.770;2022-10-16T08:10:20;2.30;;;2.10;;
59366;SDS011;45163;47.690;11.770;2022-10-16T08:12:47;4.83;;;1.77;;
59366;SDS011;45163;47.690;11.770;2022-10-16T08:15:13;2.07;;;1.87;;
59366;SDS011;45163;47.690;11.770;2022-10-16T08:17:39;3.37;;;2.50;;
59366;SDS011;45163;47.690;11.770;2022-10-16T08:20:05;2.20;;;1.97;;
59366;SDS011;45163;47.690;11.770;2022-10-16T08:22:31;2.73;;;2.10;;
59366;SDS011;45163;47.690;11.770;2022-10-16T08:24:57;2.50;;;1.80;;
59366;SDS011;45163;47.690;11.770;2022-10-16T08:27:23;2.23;;;1.77;;
59366;SDS011;45163;47.690;11.770;2022-10-16T08:29:49;2.50;;;2.13;;
59366;SDS011;45163;47.690;11.770;2022-10-16T08:32:15;2.30;;;2.10;;
59366;SDS011;45163;47.690;11.770;2022-10-16T08:34:41;3.97;;;1.63;;
59366;SDS011;45163;47.690;11.770;2022-10-16T08:37:07;3.47;;;1.80;;
59366;SDS011;45163;47.690;11.770;2022-10-16T08:39:36;1.97;;;1.80;;
59366;SDS011;45163;47.690;11.770;2022-10-16T08:44:59;3.00;;;1.70;;
59366;SDS011;45163;47.690;11.770;2022-10-16T08:47:35;2.00;;;1.80;;
59366;SDS011;45163;47.690;11.770;2022-10-16T08:50:11;3.70;;;1.90;;
59366;SDS011;45163;47.690;11.770;2022-10-16T08:52:40;2.00;;;1.80;;
59366;SDS011;45163;47.690;11.770;2022-10-16T08:58:17;2.10;;;1.87;;
59366;SDS011;45163;47.690;11.770;2022-10-16T09:00:50;3.50;;;2.20;;
59366;SDS011;45163;47.690;11.770;2022-10-16T09:06:12;2.23;;;2.00;;
59366;SDS011;45163;47.690;11.770;2022-10-16T09:11:49;1.73;;;1.63;;
59366;SDS011;45163;47.690;11.770;2022-10-16T09:22:43;2.60;;;1.70;;
59366;SDS011;45163;47.690;11.770;2022-10-16T09:25:10;1.60;;;1.50;;
59366;SDS011;45163;47.690;11.770;2022-10-16T09:27:47;1.75;;;1.65;;
59366;SDS011;45163;47.690;11.770;2022-10-16T09:30:15;2.55;;;1.80;;
59366;SDS011;45163;47.690;11.770;2022-10-16T09:32:43;2.17;;;1.90;;
59366;SDS011;45163;47.690;11.770;2022-10-16T09:35:18;3.03;;;2.05;;
59366;SDS011;45163;47.690;11.770;2022-10-16T09:37:48;2.85;;;1.90;;
59366;SDS011;45163;47.690;11.770;2022-10-16T09:40:26;2.10;;;1.90;;
59366;SDS011;45163;47.690;11.770;2022-10-16T09:45:58;4.85;;;2.00;;
59366;SDS011;45163;47.690;11.770;2022-10-16T09:48:48;2.00;;;1.90;;
59366;SDS011;45163;47.690;11.770;2022-10-16T09:51:19;2.45;;;1.92;;
59366;SDS011;45163;47.690;11.770;2022-10-16T09:53:47;3.05;;;1.92;;
59366;SDS011;45163;47.690;11.770;2022-10-16T09:56:25;2.38;;;2.10;;
59366;SDS011;45163;47.690;11.770;2022-10-16T09:58:58;2.13;;;2.00;;
59366;SDS011;45163;47.690;11.770;2022-10-16T10:04:08;2.22;;;2.03;;
59366;SDS011;45163;47.690;11.770;2022-10-16T10:09:38;2.58;;;1.85;;
59366;SDS011;45163;47.690;11.770;2022-10-16T10:12:05;1.90;;;1.80;;
59366;SDS011;45163;47.690;11.770;2022-10-16T10:15:04;3.10;;;1.88;;
59366;SDS011;45163;47.690;11.770;2022-10-16T10:17:32;2.00;;;1.90;;
59366;SDS011;45163;47.690;11.770;2022-10-16T10:19:58;2.13;;;1.88;;
59366;SDS011;45163;47.690;11.770;2022-10-16T10:25:51;2.10;;;1.90;;
59366;SDS011;45163;47.690;11.770;2022-10-16T10:37:01;2.58;;;2.00;;
59366;SDS011;45163;47.690;11.770;2022-10-16T10:39:36;2.15;;;1.95;;
59366;SDS011;45163;47.690;11.770;2022-10-16T10:42:14;2.95;;;2.20;;
59366;SDS011;45163;47.690;11.770;2022-10-16T10:55:31;4.28;;;1.90;;
59366;SDS011;45163;47.690;11.770;2022-10-16T11:06:22;2.15;;;2.00;;
59366;SDS011;45163;47.690;11.770;2022-10-16T11:08:53;2.22;;;1.70;;
59366;SDS011;45163;47.690;11.770;2022-10-16T11:11:35;1.85;;;1.75;;
59366;SDS011;45163;47.690;11.770;2022-10-16T11:14:15;2.08;;;1.70;;
59366;SDS011;45163;47.690;11.770;2022-10-16T11:16:50;1.70;;;1.60;;
59366;SDS011;45163;47.690;11.770;2022-10-16T11:21:48;2.17;;;1.65;;
59366;SDS011;45163;47.690;11.770;2022-10-16T11:24:19;2.10;;;1.52;;
59366;SDS011;45163;47.690;11.770;2022-10-16T11:26:49;2.13;;;1.60;;
59366;SDS011;45163;47.690;11.770;2022-10-16T11:29:21;1.60;;;1.50;;
59366;SDS011;45163;47.690;11.770;2022-10-16T11:31:54;4.93;;;1.70;;
59366;SDS011;45163;47.690;11.770;2022-10-16T11:34:29;1.70;;;1.60;;
59366;SDS011;45163;47.690;11.770;2022-10-16T11:40:15;1.40;;;1.30;;
59366;SDS011;45163;47.690;11.770;2022-10-16T11:42:51;2.33;;;1.52;;
59366;SDS011;45163;47.690;11.770;2022-10-16T11:45:55;2.25;;;1.80;;
59366;SDS011;45163;47.690;11.770;2022-10-16T11:51:16;1.77;;;1.50;;
59366;SDS011;45163;47.690;11.770;2022-10-16T11:53:59;1.55;;;1.45;;
59366;SDS011;45163;47.690;11.770;2022-10-16T11:56:27;1.50;;;1.40;;
59366;SDS011;45163;47.690;11.770;2022-10-16T11:59:11;1.55;;;1.45;;
59366;SDS011;45163;47.690;11.770;2022-10-16T12:01:47;1.40;;;1.30;;
59366;SDS011;45163;47.690;11.770;2022-10-16T12:07:14;1.60;;;1.40;;
59366;SDS011;45163;47.690;11.770;2022-10-16T12:09:45;8.60;;;1.40;;
59366;SDS011;45163;47.690;11.770;2022-10-16T12:12:27;1.88;;;1.48;;
59366;SDS011;45163;47.690;11.770;2022-10-16T12:17:35;1.65;;;1.30;;
59366;SDS011;45163;47.690;11.770;2022-10-16T12:20:19;1.40;;;1.30;;
59366;SDS011;45163;47.690;11.770;2022-10-16T12:25:33;2.80;;;1.40;;
59366;SDS011;45163;47.690;11.770;2022-10-16T12:28:02;3.78;;;1.30;;
59366;SDS011;45163;47.690;11.770;2022-10-16T12:30:32;2.13;;;1.33;;
59366;SDS011;45163;47.690;11.770;2022-10-16T12:33:01;1.20;;;1.20;;
59366;SDS011;45163;47.690;11.770;2022-10-16T12:35:31;1.25;;;1.20;;
59366;SDS011;45163;47.690;11.770;2022-10-16T12:38:07;2.65;;;1.30;;
59366;SDS011;45163;47.690;11.770;2022-10-16T12:40:41;3.17;;;1.50;;
59366;SDS011;45163;47.690;11.770;2022-10-16T12:43:11;4.00;;;1.30;;
59366;SDS011;45163;47.690;11.770;2022-10-16T12:46:01;1.20;;;1.10;;
59366;SDS011;45163;47.690;11.770;2022-10-16T12:48:30;1.90;;;1.27;;
59366;SDS011;45163;47.690;11.770;2022-10-16T12:50:56;1.20;;;1.10;;
59366;SDS011;45163;47.690;11.770;2022-10-16T12:53:25;2.08;;;1.30;;
59366;SDS011;45163;47.690;11.770;2022-10-16T12:55:56;1.17;;;1.10;;
59366;SDS011;45163;47.690;11.770;2022-10-16T13:07:55;1.30;;;1.20;;
59366;SDS011;45163;47.690;11.770;2022-10-16T13:10:41;1.63;;;1.38;;
59366;SDS011;45163;47.690;11.770;2022-10-16T13:13:34;1.30;;;1.20;;
59366;SDS011;45163;47.690;11.770;2022-10-16T13:21:33;1.55;;;1.10;;
59366;SDS011;45163;47.690;11.770;2022-10-16T13:26:53;1.98;;;1.45;;
59366;SDS011;45163;47.690;11.770;2022-10-16T13:29:39;1.70;;;1.38;;
59366;SDS011;45163;47.690;11.770;2022-10-16T13:32:07;1.55;;;1.38;;
59366;SDS011;45163;47.690;11.770;2022-10-16T13:34:45;1.52;;;1.30;;
59366;SDS011;45163;47.690;11.770;2022-10-16T13:37:18;1.60;;;1.10;;
59366;SDS011;45163;47.690;11.770;2022-10-16T13:39:46;2.25;;;1.15;;
59366;SDS011;45163;47.690;11.770;2022-10-16T13:42:13;1.52;;;1.42;;
59366;SDS011;45163;47.690;11.770;2022-10-16T13:44:49;1.30;;;1.20;;
59366;SDS011;45163;47.690;11.770;2022-10-16T13:47:18;2.50;;;1.20;;
59366;SDS011;45163;47.690;11.770;2022-10-16T13:50:02;1.48;;;1.13;;
59366;SDS011;45163;47.690;11.770;2022-10-16T13:52:31;1.35;;;1.25;;
59366;SDS011;45163;47.690;11.770;2022-10-16T13:54:57;1.05;;;0.95;;
59366;SDS011;45163;47.690;11.770;2022-10-16T13:57:24;1.88;;;1.10;;
59366;SDS011;45163;47.690;11.770;2022-10-16T13:59:50;1.25;;;1.15;;
59366;SDS011;45163;47.690;11.770;2022-10-16T14:02:18;1.20;;;1.10;;
59366;SDS011;45163;47.690;11.770;2022-10-16T14:04:45;1.65;;;1.40;;
59366;SDS011;45163;47.690;11.770;2022-10-16T14:07:18;2.05;;;1.23;;
59366;SDS011;45163;47.690;11.770;2022-10-16T14:09:50;2.65;;;1.20;;
59366;SDS011;45163;47.690;11.770;2022-10-16T14:12:17;1.00;;;1.00;;
59366;SDS011;45163;47.690;11.770;2022-10-16T14:14:48;1.67;;;1.23;;
59366;SDS011;45163;47.690;11.770;2022-10-16T14:17:18;1.27;;;1.17;;
59366;SDS011;45163;47.690;11.770;2022-10-16T14:19:48;1.80;;;1.38;;
59366;SDS011;45163;47.690;11.770;2022-10-16T14:24:55;1.08;;;1.00;;
59366;SDS011;45163;47.690;11.770;2022-10-16T14:27:32;1.50;;;1.10;;
59366;SDS011;45163;47.690;11.770;2022-10-16T14:32:34;2.05;;;1.30;;
59366;SDS011;45163;47.690;11.770;2022-10-16T14:35:00;1.35;;;1.25;;
59366;SDS011;45163;47.690;11.770;2022-10-16T14:37:27;2.20;;;1.30;;
59366;SDS011;45163;47.690;11.770;2022-10-16T14:39:55;6.28;;;1.50;;
59366;SDS011;45163;47.690;11.770;2022-10-16T14:42:22;2.85;;;1.55;;
59366;SDS011;45163;47.690;11.770;2022-10-16T14:44:51;2.10;;;1.90;;
59366;SDS011;45163;47.690;11.770;2022-10-16T14:47:20;4.45;;;1.48;;
59366;SDS011;45163;47.690;11.770;2022-10-16T14:49:51;1.85;;;1.65;;
59366;SDS011;45163;47.690;11.770;2022-10-16T14:52:21;1.35;;;1.25;;
59366;SDS011;45163;47.690;11.770;2022-10-16T14:54:48;1.38;;;1.27;;
59366;SDS011;45163;47.690;11.770;2022-10-16T14:57:16;1.15;;;1.10;;
59366;SDS011;45163;47.690;11.770;2022-10-16T14:59:52;1.83;;;1.27;;
59366;SDS011;45163;47.690;11.770;2022-10-16T15:04:51;2.25;;;1.20;;
59366;SDS011;45163;47.690;11.770;2022-10-16T15:07:17;2.80;;;1.33;;
59366;SDS011;45163;47.690;11.770;2022-10-16T15:09:44;2.33;;;0.90;;
59366;SDS011;45163;47.690;11.770;2022-10-16T15:12:10;1.30;;;1.20;;
59366;SDS011;45163;47.690;11.770;2022-10-16T15:14:36;2.30;;;1.35;;
59366;SDS011;45163;47.690;11.770;2022-10-16T15:17:02;1.95;;;1.50;;
59366;SDS011;45163;47.690;11.770;2022-10-16T15:19:29;1.15;;;1.05;;
59366;SDS011;45163;47.690;11.770;2022-10-16T15:21:55;1.77;;;1.27;;
59366;SDS011;45163;47.690;11.770;2022-10-16T15:24:21;2.43;;;1.70;;
59366;SDS011;45163;47.690;11.770;2022-10-16T15:26:47;2.83;;;1.40;;
59366;SDS011;45163;47.690;11.770;2022-10-16T15:29:15;2.33;;;1.20;;
59366;SDS011;45163;47.690;11.770;2022-10-16T15:31:41;2.50;;;1.20;;
59366;SDS011;45163;47.690;11.770;2022-10-16T15:34:13;2.10;;;1.40;;
59366;SDS011;45163;47.690;11.770;2022-10-16T15:36:39;5.33;;;1.73;;
59366;SDS011;45163;47.690;11.770;2022-10-16T15:39:10;2.67;;;1.63;;
59366;SDS011;45163;47.690;11.770;2022-10-16T15:41:39;4.00;;;1.77;;
59366;SDS011;45163;47.690;11.770;2022-10-16T15:44:05;5.17;;;2.20;;
59366;SDS011;45163;47.690;11.770;2022-10-16T15:46:31;5.13;;;2.70;;
59366;SDS011;45163;47.690;11.770;2022-10-16T15:48:59;4.23;;;2.90;;
59366;SDS011;45163;47.690;11.770;2022-10-16T15:51:26;6.80;;;2.77;;
59366;SDS011;45163;47.690;11.770;2022-10-16T15:53:58;5.87;;;3.07;;
59366;SDS011;45163;47.690;11.770;2022-10-16T15:56:27;3.00;;;2.00;;
59366;SDS011;45163;47.690;11.770;2022-10-16T15:58:54;3.07;;;2.00;;
59366;SDS011;45163;47.690;11.770;2022-10-16T16:01:20;2.90;;;2.30;;
59366;SDS011;45163;47.690;11.770;2022-10-16T16:03:47;3.27;;;2.30;;
59366;SDS011;45163;47.690;11.770;2022-10-16T16:06:13;3.50;;;2.30;;
59366;SDS011;45163;47.690;11.770;2022-10-16T16:08:40;7.20;;;2.30;;
59366;SDS011;45163;47.690;11.770;2022-10-16T16:11:07;5.90;;;2.47;;
59366;SDS011;45163;47.690;11.770;2022-10-16T16:13:35;4.37;;;2.33;;
59366;SDS011;45163;47.690;11.770;2022-10-16T16:16:05;3.17;;;1.70;;
59366;SDS011;45163;47.690;11.770;2022-10-16T16:18:33;10.10;;;2.70;;
59366;SDS011;45163;47.690;11.770;2022-10-16T16:20:59;3.07;;;1.77;;
59366;SDS011;45163;47.690;11.770;2022-10-16T16:23:25;3.37;;;2.30;;
59366;SDS011;45163;47.690;11.770;2022-10-16T16:26:10;9.87;;;5.33;;
59366;SDS011;45163;47.690;11.770;2022-10-16T16:28:41;5.07;;;3.13;;
59366;SDS011;45163;47.690;11.770;2022-10-16T16:31:08;8.20;;;4.30;;
59366;SDS011;45163;47.690;11.770;2022-10-16T16:33:34;7.60;;;4.87;;
59366;SDS011;45163;47.690;11.770;2022-10-16T16:36:02;5.17;;;3.40;;
59366;SDS011;45163;47.690;11.770;2022-10-16T16:38:29;4.90;;;2.27;;
59366;SDS011;45163;47.690;11.770;2022-10-16T16:40:57;6.70;;;2.20;;
59366;SDS011;45163;47.690;11.770;2022-10-16T16:43:25;6.53;;;2.87;;
59366;SDS011;45163;47.690;11.770;2022-10-16T16:45:52;5.63;;;2.40;;